createdAt,value
2023-02-05T00:02:10.541Z,32.83
2023-02-05T00:04:38.065Z,25.70
2023-02-05T00:07:08.911Z,32.50
2023-02-05T00:09:36.757Z,30.38
2023-02-05T00:12:03.435Z,36.13
2023-02-05T00:14:30.012Z,38.85
2023-02-05T00:17:00.623Z,40.45
2023-02-05T00:19:27.274Z,25.38
2023-02-05T00:21:53.953Z,30.63
2023-02-05T00:24:20.593Z,27.80
2023-02-05T00:26:48.841Z,34.40
2023-02-05T00:29:15.465Z,33.47
2023-02-05T00:31:42.199Z,32.72
2023-02-05T00:34:08.900Z,29.65
2023-02-05T00:36:40.920Z,32.92
2023-02-05T00:39:09.435Z,31.77
2023-02-05T00:41:36.178Z,32.67
2023-02-05T00:44:06.223Z,40.42
2023-02-05T00:46:37.234Z,38.60
2023-02-05T00:49:04.001Z,35.33
2023-02-05T00:51:30.590Z,38.78
2023-02-05T00:53:57.189Z,34.78
2023-02-05T00:56:24.669Z,42.90
2023-02-05T00:58:51.349Z,35.47
2023-02-05T01:01:18.189Z,45.22
2023-02-05T01:03:45.018Z,42.33
2023-02-05T01:06:13.609Z,50.25
2023-02-05T01:08:40.275Z,49.28
2023-02-05T01:11:09.450Z,55.83
2023-02-05T01:13:36.311Z,55.40
2023-02-05T01:16:10.463Z,60.70
2023-02-05T01:18:37.073Z,47.33
2023-02-05T01:21:04.230Z,56.38
2023-02-05T01:23:30.770Z,53.10
2023-02-05T01:26:01.896Z,51.25
2023-02-05T01:28:28.507Z,49.60
2023-02-05T01:30:55.342Z,59.58
2023-02-05T01:33:21.977Z,54.33
2023-02-05T01:35:49.686Z,58.17
2023-02-05T01:38:16.236Z,70.05
2023-02-05T01:40:42.794Z,60.40
2023-02-05T01:43:17.280Z,57.65
2023-02-05T01:46:20.492Z,70.47
2023-02-05T01:48:52.860Z,69.20
2023-02-05T01:51:20.387Z,72.90
2023-02-05T01:53:48.298Z,76.65
2023-02-05T01:56:22.946Z,66.47
2023-02-05T01:58:58.543Z,70.20
2023-02-05T02:01:27.553Z,72.90
2023-02-05T02:03:57.732Z,68.43
2023-02-05T02:06:30.028Z,68.85
2023-02-05T02:08:57.767Z,69.90
2023-02-05T02:11:26.348Z,67.60
2023-02-05T02:13:56.100Z,65.30
2023-02-05T02:16:26.969Z,68.63
2023-02-05T02:18:54.651Z,63.63
2023-02-05T02:21:43.234Z,57.42
2023-02-05T02:24:34.287Z,58.85
2023-02-05T02:27:39.823Z,56.40
2023-02-05T02:30:14.053Z,58.25
2023-02-05T02:32:46.491Z,57.50
2023-02-05T02:35:33.320Z,53.08
2023-02-05T02:38:16.816Z,55.53
2023-02-05T02:40:55.429Z,59.85
2023-02-05T02:43:41.394Z,58.30
2023-02-05T02:46:30.903Z,59.17
2023-02-05T02:49:03.085Z,62.67
2023-02-05T02:51:34.117Z,53.30
2023-02-05T02:54:06.399Z,55.60
2023-02-05T02:56:39.904Z,53.78
2023-02-05T02:59:12.189Z,54.83
2023-02-05T03:01:46.887Z,53.10
2023-02-05T03:04:25.298Z,49.75
2023-02-05T03:06:54.655Z,54.33
2023-02-05T03:09:30.211Z,53.65
2023-02-05T03:14:24.968Z,46.28
2023-02-05T03:16:54.112Z,53.10
2023-02-05T03:19:21.313Z,55.78
2023-02-05T03:21:54.189Z,53.45
2023-02-05T03:24:22.433Z,51.00
2023-02-05T03:26:50.593Z,48.88
2023-02-05T03:29:29.476Z,53.33
2023-02-05T03:32:13.478Z,50.00
2023-02-05T03:35:18.296Z,44.35
2023-02-05T03:37:57.503Z,53.72
2023-02-05T03:40:51.381Z,43.17
2023-02-05T03:43:41.801Z,43.47
2023-02-05T03:46:14.159Z,45.25
2023-02-05T03:48:52.887Z,46.58
2023-02-05T03:51:48.995Z,42.72
2023-02-05T03:54:29.068Z,41.10
2023-02-05T03:57:14.293Z,43.92
2023-02-05T03:59:45.779Z,40.08
2023-02-05T04:02:13.078Z,42.08
2023-02-05T04:04:42.216Z,38.75
2023-02-05T04:07:14.780Z,37.92
2023-02-05T04:09:43.166Z,36.05
2023-02-05T04:12:11.737Z,35.55
2023-02-05T04:14:39.688Z,34.90
2023-02-05T04:17:12.376Z,32.78
2023-02-05T04:19:41.518Z,34.03
2023-02-05T04:22:09.057Z,32.67
2023-02-05T04:24:39.228Z,32.30
2023-02-05T04:27:09.096Z,30.08
2023-02-05T04:29:36.594Z,29.52
2023-02-05T04:32:05.144Z,26.67
2023-02-05T04:34:31.993Z,27.10
2023-02-05T04:37:03.565Z,28.38
2023-02-05T04:39:31.005Z,28.90
2023-02-05T04:41:57.592Z,27.98
2023-02-05T04:44:24.256Z,24.90
2023-02-05T04:46:52.406Z,27.50
2023-02-05T04:49:19.412Z,24.45
2023-02-05T04:51:46.197Z,25.17
2023-02-05T04:54:12.725Z,23.55
2023-02-05T04:56:42.289Z,23.52
2023-02-05T04:59:08.786Z,23.40
2023-02-05T05:01:35.273Z,24.63
2023-02-05T05:04:04.476Z,26.23
2023-02-05T05:06:35.754Z,23.00
2023-02-05T05:09:02.259Z,22.35
2023-02-05T05:11:28.775Z,24.33
2023-02-05T05:13:55.362Z,19.00
2023-02-05T05:16:26.233Z,21.20
2023-02-05T05:18:52.958Z,20.25
2023-02-05T05:21:19.495Z,20.48
2023-02-05T05:23:46.079Z,18.95
2023-02-05T05:26:13.708Z,20.30
2023-02-05T05:28:40.245Z,17.58
2023-02-05T05:31:13.929Z,16.63
2023-02-05T05:33:40.539Z,19.70
2023-02-05T05:36:08.721Z,16.83
2023-02-05T05:38:35.528Z,16.75
2023-02-05T05:41:20.877Z,18.38
2023-02-05T05:43:48.557Z,16.25
2023-02-05T05:46:22.910Z,18.05
2023-02-05T05:48:54.872Z,17.35
2023-02-05T05:51:22.562Z,16.42
2023-02-05T05:53:49.870Z,17.20
2023-02-05T05:56:21.840Z,20.65
2023-02-05T05:58:49.305Z,18.10
2023-02-05T06:01:19.185Z,16.02
2023-02-05T06:03:45.692Z,18.48
2023-02-05T06:06:16.832Z,19.17
2023-02-05T06:08:43.491Z,18.33
2023-02-05T06:11:10.404Z,21.45
2023-02-05T06:13:37.150Z,20.65
2023-02-05T06:16:07.968Z,20.42
2023-02-05T06:18:36.121Z,19.15
2023-02-05T06:21:04.615Z,19.35
2023-02-05T06:23:32.008Z,16.75
2023-02-05T06:26:02.452Z,18.77
2023-02-05T06:28:28.952Z,16.25
2023-02-05T06:30:55.937Z,15.27
2023-02-05T06:33:22.479Z,15.52
2023-02-05T06:35:53.468Z,15.40
2023-02-05T06:38:19.978Z,16.67
2023-02-05T06:40:47.774Z,12.40
2023-02-05T06:43:14.713Z,12.23
2023-02-05T06:45:45.400Z,10.70
2023-02-05T06:48:12.219Z,10.60
2023-02-05T06:50:38.869Z,12.07
2023-02-05T06:53:05.612Z,10.48
2023-02-05T06:55:38.688Z,11.73
2023-02-05T06:58:05.632Z,6.95
2023-02-05T07:00:32.626Z,6.78
2023-02-05T07:02:59.271Z,7.47
2023-02-05T07:05:33.344Z,6.75
2023-02-05T07:08:01.244Z,7.65
2023-02-05T07:10:27.797Z,4.72
2023-02-05T07:12:54.299Z,9.40
2023-02-05T07:15:20.819Z,8.55
2023-02-05T07:17:50.461Z,4.63
2023-02-05T07:20:18.761Z,6.65
2023-02-05T07:22:47.081Z,9.77
2023-02-05T07:25:13.616Z,8.98
2023-02-05T07:27:43.365Z,6.32
2023-02-05T07:30:10.866Z,7.03
2023-02-05T07:32:37.512Z,5.45
2023-02-05T07:35:04.265Z,7.72
2023-02-05T07:37:37.272Z,8.50
2023-02-05T07:40:04.126Z,7.18
2023-02-05T07:42:31.663Z,6.57
2023-02-05T07:45:01.034Z,7.20
2023-02-05T07:47:31.859Z,3.15
2023-02-05T07:49:58.433Z,8.43
2023-02-05T07:52:25.020Z,4.90
2023-02-05T07:54:51.760Z,7.40
2023-02-05T07:57:22.897Z,5.05
2023-02-05T07:59:49.549Z,6.55
2023-02-05T08:02:16.218Z,6.35
2023-02-05T08:04:42.760Z,7.82
2023-02-05T08:07:14.380Z,7.35
2023-02-05T08:09:40.958Z,4.32
2023-02-05T08:12:07.707Z,6.43
2023-02-05T08:14:35.345Z,8.10
2023-02-05T08:17:06.218Z,9.50
2023-02-05T08:19:32.790Z,10.00
2023-02-05T08:21:59.343Z,7.20
2023-02-05T08:24:26.014Z,8.85
2023-02-05T08:26:56.345Z,8.18
2023-02-05T08:29:23.068Z,8.05
2023-02-05T08:31:49.645Z,8.90
2023-02-05T08:34:16.318Z,11.48
2023-02-05T08:36:45.688Z,8.43
2023-02-05T08:39:12.227Z,8.50
2023-02-05T08:41:38.787Z,12.82
2023-02-05T08:44:05.466Z,7.63
2023-02-05T08:46:48.811Z,7.68
2023-02-05T08:49:17.073Z,11.98
2023-02-05T08:51:45.016Z,8.48
2023-02-05T08:54:13.418Z,9.48
2023-02-05T08:56:50.389Z,15.02
2023-02-05T08:59:17.332Z,9.57
2023-02-05T09:01:44.465Z,17.35
2023-02-05T09:04:19.915Z,13.70
2023-02-05T09:09:15.843Z,19.77
2023-02-05T09:11:42.811Z,9.32
2023-02-05T09:14:10.175Z,13.05
2023-02-05T09:16:38.405Z,11.35
2023-02-05T09:19:05.216Z,13.52
2023-02-05T09:21:32.033Z,16.35
2023-02-05T09:23:58.859Z,16.33
2023-02-05T09:26:29.906Z,15.30
2023-02-05T09:28:57.764Z,23.20
2023-02-05T09:31:24.766Z,15.32
2023-02-05T09:33:51.487Z,13.95
2023-02-05T09:36:23.434Z,12.57
2023-02-05T09:39:01.988Z,17.30
2023-02-05T09:41:51.089Z,17.50
2023-02-05T09:44:40.667Z,15.05
2023-02-05T09:47:27.592Z,13.20
2023-02-05T09:50:03.958Z,18.27
2023-02-05T09:52:40.190Z,15.65
2023-02-05T09:55:49.585Z,19.05
2023-02-05T09:58:22.823Z,19.88
2023-02-05T10:00:59.506Z,18.27
2023-02-05T10:03:47.160Z,14.70
2023-02-05T10:06:48.496Z,15.15
2023-02-05T10:09:37.229Z,17.05
2023-02-05T10:12:29.923Z,25.30
2023-02-05T10:15:02.754Z,21.15
2023-02-05T10:18:06.285Z,15.77
2023-02-05T10:20:57.923Z,18.00
2023-02-05T10:23:37.930Z,21.17
2023-02-05T10:26:12.380Z,23.30
2023-02-05T10:29:26.535Z,21.05
2023-02-05T10:31:54.402Z,23.20
2023-02-05T10:34:46.551Z,20.77
2023-02-05T10:37:20.023Z,23.83
2023-02-05T10:39:48.381Z,26.15
2023-02-05T10:42:35.280Z,20.77
2023-02-05T10:45:16.391Z,17.23
2023-02-05T10:48:14.805Z,18.52
2023-02-05T10:50:50.837Z,28.30
2023-02-05T10:53:21.757Z,28.08
2023-02-05T10:55:52.592Z,18.13
2023-02-05T10:58:46.474Z,21.67
2023-02-05T11:01:30.047Z,22.02
2023-02-05T11:04:03.383Z,22.75
2023-02-05T11:06:39.131Z,22.20
2023-02-05T11:09:25.958Z,18.98
2023-02-05T11:11:56.733Z,14.23
2023-02-05T11:14:39.335Z,15.48
2023-02-05T11:17:18.228Z,13.93
2023-02-05T11:20:06.862Z,21.38
2023-02-05T11:22:36.501Z,20.63
2023-02-05T11:25:35.111Z,16.88
2023-02-05T11:28:04.306Z,17.10
2023-02-05T11:30:50.534Z,19.50
2023-02-05T11:33:20.272Z,14.00
2023-02-05T11:36:05.164Z,20.17
2023-02-05T11:38:46.014Z,20.10
2023-02-05T11:41:27.680Z,21.40
2023-02-05T11:43:56.108Z,21.08
2023-02-05T11:46:27.169Z,19.40
2023-02-05T11:49:05.123Z,20.95
2023-02-05T11:51:35.053Z,24.13
2023-02-05T11:54:32.815Z,18.35
2023-02-05T11:57:22.717Z,22.73
2023-02-05T11:59:58.284Z,25.17
2023-02-05T12:02:32.346Z,20.42
2023-02-05T12:05:03.706Z,21.35
2023-02-05T12:07:42.626Z,19.33
2023-02-05T12:10:26.789Z,24.50
2023-02-05T12:13:30.909Z,23.00
2023-02-05T12:16:35.331Z,18.75
2023-02-05T12:19:16.890Z,22.45
2023-02-05T12:22:00.037Z,23.50
2023-02-05T12:24:38.454Z,25.77
2023-02-05T12:27:39.999Z,23.95
2023-02-05T12:30:34.960Z,24.15
2023-02-05T12:33:29.890Z,15.02
2023-02-05T12:36:08.434Z,18.83
2023-02-05T12:38:49.885Z,24.33
2023-02-05T12:41:36.494Z,21.90
2023-02-05T12:44:58.945Z,19.13
2023-02-05T12:47:49.269Z,21.83
2023-02-05T12:50:19.120Z,25.40
2023-02-05T12:53:05.646Z,17.88
2023-02-05T12:56:09.798Z,18.35
2023-02-05T12:58:43.546Z,19.33
2023-02-05T13:01:22.317Z,19.98
2023-02-05T13:03:59.087Z,22.35
2023-02-05T13:06:51.820Z,25.35
2023-02-05T13:09:31.633Z,23.52
2023-02-05T13:12:07.406Z,19.38
2023-02-05T13:14:40.826Z,22.70
2023-02-05T13:17:38.144Z,14.70
2023-02-05T13:20:15.734Z,18.58
2023-02-05T13:23:14.026Z,19.17
2023-02-05T13:26:07.893Z,16.85
2023-02-05T13:28:47.974Z,15.15
2023-02-05T13:31:24.036Z,19.40
2023-02-05T13:33:52.834Z,15.57
2023-02-05T13:37:01.832Z,22.23
2023-02-05T13:40:03.064Z,18.90
2023-02-05T13:42:58.711Z,23.67
2023-02-05T13:45:41.867Z,13.02
2023-02-05T13:48:27.499Z,15.90
2023-02-05T13:51:21.379Z,17.85
2023-02-05T13:53:57.033Z,18.52
2023-02-05T13:56:57.642Z,19.95
2023-02-05T13:59:38.206Z,21.65
2023-02-05T14:02:30.762Z,22.40
2023-02-05T14:04:58.620Z,21.25
2023-02-05T14:07:32.868Z,13.98
2023-02-05T14:10:02.553Z,18.45
2023-02-05T14:12:38.028Z,19.67
2023-02-05T14:15:17.324Z,19.38
2023-02-05T14:17:47.167Z,19.92
2023-02-05T14:20:25.849Z,16.55
2023-02-05T14:22:54.678Z,21.00
2023-02-05T14:25:39.511Z,13.90
2023-02-05T14:28:33.696Z,16.42
2023-02-05T14:31:03.485Z,14.25
2023-02-05T14:33:41.566Z,12.45
2023-02-05T14:36:21.536Z,22.40
2023-02-05T14:38:54.392Z,15.73
2023-02-05T14:41:35.953Z,10.48
2023-02-05T14:44:06.714Z,15.45
2023-02-05T14:46:54.416Z,18.75
2023-02-05T14:49:27.579Z,14.57
2023-02-05T14:52:00.874Z,17.02
2023-02-05T14:54:42.613Z,18.35
2023-02-05T21:46:23.560Z,29.40
2023-02-05T23:06:19.349Z,25.42
2023-02-05T23:08:51.261Z,20.92
2023-02-05T23:11:18.200Z,22.63
2023-02-05T23:13:44.803Z,23.35
2023-02-05T23:16:23.792Z,29.33
2023-02-05T23:18:55.155Z,25.98
2023-02-05T23:21:24.223Z,21.23
2023-02-05T23:23:51.164Z,23.98
2023-02-05T23:26:22.790Z,23.52
2023-02-05T23:28:52.226Z,28.00
2023-02-05T23:31:21.746Z,23.33
2023-02-05T23:33:48.324Z,35.53
2023-02-05T23:36:19.112Z,23.42
2023-02-05T23:38:46.188Z,22.38
2023-02-05T23:41:13.043Z,26.35
2023-02-05T23:43:39.728Z,26.48
2023-02-05T23:46:08.166Z,26.95
2023-02-05T23:48:38.879Z,31.45
2023-02-05T23:51:05.436Z,23.13
2023-02-05T23:53:31.963Z,24.98
2023-02-05T23:56:23.547Z,26.05
2023-02-05T23:58:50.083Z,20.42
